createdAt,value
2023-11-06T00:00:21.500Z,19.1
2023-11-06T00:06:13.434Z,19.1
2023-11-06T00:12:04.117Z,19
2023-11-06T00:18:08.034Z,19
2023-11-06T00:23:59.622Z,19
2023-11-06T00:29:50.276Z,19
2023-11-06T00:35:43.218Z,19
2023-11-06T00:41:37.809Z,19
2023-11-06T00:47:29.189Z,19
2023-11-06T00:53:21.597Z,19
2023-11-06T01:04:33.827Z,19
2023-11-06T01:10:10.847Z,19
2023-11-06T01:21:08.355Z,18.9
2023-11-06T01:27:09.867Z,18.9
2023-11-06T01:32:46.441Z,18.9
2023-11-06T01:38:22.011Z,18.9
2023-11-06T01:44:14.859Z,18.9
2023-11-06T01:50:06.805Z,18.9
2023-11-06T02:01:34.189Z,18.9
2023-11-06T02:07:11.577Z,18.9
2023-11-06T02:13:03.045Z,18.9
2023-11-06T02:18:56.152Z,18.9
2023-11-06T02:24:58.631Z,18.9
2023-11-06T02:30:50.495Z,18.9
2023-11-06T02:36:43.600Z,18.9
2023-11-06T02:42:36.580Z,18.9
2023-11-06T02:48:27.926Z,18.9
2023-11-06T02:54:22.461Z,18.9
2023-11-06T03:00:13.737Z,18.8
2023-11-06T03:06:06.875Z,18.8
2023-11-06T03:11:59.415Z,18.8
2023-11-06T03:17:50.788Z,18.8
2023-11-06T03:23:43.068Z,18.8
2023-11-06T03:29:35.156Z,18.8
2023-11-06T03:35:27.192Z,18.8
2023-11-06T03:41:19.517Z,18.8
2023-11-06T03:47:16.159Z,18.8
2023-11-06T03:53:08.187Z,18.8
2023-11-06T04:04:36.721Z,18.8
2023-11-06T04:10:31.616Z,18.8
2023-11-06T04:16:24.489Z,18.8
2023-11-06T04:22:17.625Z,18.8
2023-11-06T04:28:09.716Z,18.8
2023-11-06T04:33:46.022Z,18.8
2023-11-06T04:39:39.744Z,18.8
2023-11-06T04:45:31.884Z,18.8
2023-11-06T04:51:23.971Z,18.8
2023-11-06T04:57:15.935Z,18.8
2023-11-06T05:08:48.848Z,18.8
2023-11-06T05:14:40.292Z,18.8
2023-11-06T05:26:12.927Z,18.8
2023-11-06T05:37:27.003Z,18.8
2023-11-06T05:48:56.024Z,18.8
2023-11-06T07:35:15.206Z,18.8
2023-11-06T07:41:07.609Z,18.8
2023-11-06T07:52:06.277Z,18.8
2023-11-06T08:03:49.488Z,18.8
2023-11-06T08:09:41.489Z,18.8
2023-11-06T08:15:04.364Z,18.8
2023-11-06T08:20:44.159Z,18.8
2023-11-06T08:26:36.443Z,18.8
2023-11-06T08:32:29.622Z,18.8
2023-11-06T08:38:22.777Z,18.8
2023-11-06T08:43:59.491Z,18.8
2023-11-06T08:55:34.631Z,18.8
2023-11-06T09:01:27.190Z,18.8
2023-11-06T09:07:20.290Z,18.8
2023-11-06T09:12:58.444Z,18.8
2023-11-06T09:18:51.057Z,18.9
2023-11-06T09:24:43.657Z,18.9
2023-11-06T09:30:39.313Z,18.9
2023-11-06T09:36:32.061Z,18.9
2023-11-06T09:42:24.333Z,18.9
2023-11-06T09:48:03.385Z,18.9
2023-11-06T09:53:44.166Z,18.9
2023-11-06T09:59:22.466Z,18.9
2023-11-06T10:05:15.640Z,18.9
2023-11-06T10:11:09.285Z,18.9
2023-11-06T10:16:50.160Z,19
2023-11-06T10:22:43.665Z,19
2023-11-06T10:28:22.885Z,19
2023-11-06T10:39:58.426Z,19
2023-11-06T10:46:09.231Z,19
2023-11-06T10:52:03.221Z,19
2023-11-06T10:58:07.096Z,19
2023-11-06T11:04:00.567Z,19
2023-11-06T11:09:54.143Z,19
2023-11-06T11:15:50.336Z,19.1
2023-11-06T11:21:47.080Z,19.1
2023-11-06T11:27:40.050Z,19.1
2023-11-06T11:33:33.433Z,19.1
2023-11-06T11:39:33.790Z,19.1
2023-11-06T11:45:24.979Z,19.1
2023-11-06T11:51:17.962Z,19.1
2023-11-06T11:56:54.751Z,19.2
2023-11-06T12:02:47.624Z,19.2
2023-11-06T12:08:46.284Z,19.3
2023-11-06T12:14:38.685Z,19.3
2023-11-06T12:20:39.661Z,19.3
2023-11-06T12:32:08.605Z,19.3
2023-11-06T12:38:04.752Z,19.3
2023-11-06T12:43:56.771Z,19.3
2023-11-06T12:50:06.096Z,19.3
2023-11-06T12:55:57.137Z,19.3
2023-11-06T13:01:50.946Z,19.3
2023-11-06T13:07:44.336Z,19.3
2023-11-06T13:13:30.345Z,19.4
2023-11-06T13:19:08.162Z,19.4
2023-11-06T13:24:59.993Z,19.4
2023-11-06T13:30:54.090Z,19.4
2023-11-06T13:36:46.512Z,19.4
2023-11-06T13:42:39.170Z,19.5
2023-11-06T13:48:30.325Z,19.5
2023-11-06T13:54:23.962Z,19.6
2023-11-06T14:00:18.109Z,19.6
2023-11-06T14:06:09.903Z,19.6
2023-11-06T14:12:02.279Z,19.6
2023-11-06T14:17:37.727Z,19.6
2023-11-06T14:23:29.640Z,19.6
2023-11-06T14:29:21.700Z,19.6
2023-11-06T14:35:14.877Z,19.6
2023-11-06T14:41:06.358Z,19.6
2023-11-06T14:46:58.930Z,19.6
2023-11-06T14:53:02.588Z,19.6
2023-11-06T14:59:09.811Z,19.6
2023-11-06T15:05:03.016Z,19.6
2023-11-06T15:10:55.555Z,19.6
2023-11-06T15:16:47.610Z,19.6
2023-11-06T15:22:45.336Z,19.6
2023-11-06T15:28:37.668Z,19.5
2023-11-06T15:34:31.639Z,19.5
2023-11-06T15:40:27.564Z,19.5
2023-11-06T15:46:24.632Z,19.5
2023-11-06T15:52:23.054Z,19.5
2023-11-06T16:03:38.525Z,19.5
2023-11-06T16:09:32.874Z,19.5
2023-11-06T16:15:25.105Z,19.5
2023-11-06T16:21:18.328Z,19.6
2023-11-06T16:27:12.666Z,19.6
2023-11-06T16:32:50.146Z,19.6
2023-11-06T16:38:56.501Z,19.6
2023-11-06T16:44:48.702Z,19.6
2023-11-06T16:50:41.980Z,19.6
2023-11-06T16:56:33.857Z,19.6
2023-11-06T17:02:26.101Z,19.6
2023-11-06T17:08:19.533Z,19.6
2023-11-06T17:14:15.901Z,19.6
2023-11-06T17:20:12.660Z,19.6
2023-11-06T17:26:09.317Z,19.5
2023-11-06T17:32:01.698Z,19.5
2023-11-06T17:37:55.064Z,19.5
2023-11-06T17:43:52.534Z,19.5
2023-11-06T17:49:45.297Z,19.5
2023-11-06T17:55:37.261Z,19.6
2023-11-06T18:01:29.686Z,19.6
2023-11-06T18:13:00.994Z,19.6
2023-11-06T18:18:53.750Z,19.6
2023-11-06T18:24:46.674Z,19.6
2023-11-06T18:30:37.429Z,19.6
2023-11-06T18:41:51.645Z,19.6
2023-11-06T18:47:43.084Z,19.6
2023-11-06T18:53:36.126Z,19.6
2023-11-06T18:59:28.722Z,19.6
2023-11-06T19:05:21.292Z,19.6
2023-11-06T19:11:21.010Z,19.6
2023-11-06T19:17:12.901Z,19.6
2023-11-06T19:23:05.721Z,19.6
2023-11-06T19:29:00.854Z,19.6
2023-11-06T19:34:54.414Z,19.7
2023-11-06T19:40:45.811Z,19.7
2023-11-06T19:46:38.239Z,19.7
2023-11-06T19:52:34.067Z,19.7
2023-11-06T19:58:26.441Z,19.7
2023-11-06T20:04:54.518Z,19.7
2023-11-06T20:10:46.512Z,19.7
2023-11-06T20:16:38.624Z,19.7
2023-11-06T20:22:32.278Z,19.8
2023-11-06T20:33:48.454Z,19.8
2023-11-06T20:39:25.615Z,19.7
2023-11-06T20:45:04.442Z,19.6
2023-11-06T20:50:57.508Z,19.6
2023-11-06T20:56:49.465Z,19.4
2023-11-06T21:02:25.988Z,19.4
2023-11-06T21:08:18.990Z,19.4
2023-11-06T21:14:11.428Z,19.3
2023-11-06T21:20:03.695Z,19.3
2023-11-06T21:25:55.637Z,19.3
2023-11-06T21:31:48.595Z,19.3
2023-11-06T21:37:29.656Z,19.3
2023-11-06T21:43:06.077Z,19.3
2023-11-06T21:48:59.349Z,19.4
2023-11-06T21:55:03.155Z,19.4
2023-11-06T22:00:58.002Z,19.4
2023-11-06T22:06:59.103Z,19.4
2023-11-06T22:12:28.181Z,19.4
2023-11-06T22:18:05.749Z,19.4
2023-11-06T22:23:14.382Z,19.4
2023-11-06T22:29:05.420Z,19.4
2023-11-06T22:34:58.618Z,19.4
2023-11-06T22:40:36.737Z,19.4
2023-11-06T22:46:29.063Z,19.4
2023-11-06T22:52:07.262Z,19.3
2023-11-06T22:57:43.600Z,19.3
2023-11-06T23:03:20.687Z,19.3
2023-11-06T23:09:12.926Z,19.3
2023-11-06T23:15:05.186Z,19.3
2023-11-06T23:20:57.754Z,19.3
2023-11-06T23:32:46.308Z,19.3
2023-11-06T23:38:38.880Z,19.3
2023-11-06T23:44:42.132Z,19.3
2023-11-06T23:50:35.443Z,19.3
2023-11-06T23:56:27.179Z,19.3
